CYPU weather

Puntzi Mountain Airport
Puntzi Mountain, British Columbia, Canada

Public forecast

Using degrees Celsius for public forecast. Weather courtesy of forecast.io.

METAR (pilot weather report)

Closest report is Williams Lake Airport, 77.1 nm (142.9 km) E. Retrieved 2019/08/25 04:00 UTC (35 minutes ago):

CYWL 250400Z 22002KT 15SM BKN080 12/10 A2993 RMK AC6 SLP146 DENSITY ALT 3500FT

TAF (pilot weather forecast)

Closest forecast is Williams Lake Airport, 77.1 nm (142.9 km) E. Retrieved 2019/08/25 01:42 UTC (3 hours ago):

TAF CYWL 250038Z 2501/2513 VRB03KT P6SM BKN100 TEMPO 2501/2503 P6SM -SHRA VCTS BKN060CB FM250300 VRB03KT P6SM BKN070 FM250700 VRB03KT P6SM BKN040 TEMPO 2507/2513 P6SM -SHRA RMK NXT FCST BY 250700Z